1976 Severe Tropical Cyclone WALLY (1976054S16125)


IBTrACS version v04r00. Visit IBTrACS website for data access.
Please direct all questions to the IBTrACS Q and A forum

Storm track - Intensity - Wind Radii - Intensity Data - Source Data - All data

Summary Information

Storm ID 1976054S16125
Start Feb 22 12Z
Landfall Feb 27 10Z
Max Intensity 75 kt (Feb 26 01Z), 973 mb (Feb 25 22Z)
End Feb 27 16Z
ATCF IDs SH161976
Track status Best track data.

Storm track plot

Map of storm track

Intensity plots

Map of storm track

Radial wind information

No radial wind information for this storm


Position and Intensity Table

BASIN ISO_TIME_________ NATURE LAT LON WMO WIND WMO PRES BOM WIND BOM PRES DS824 WIND DS824 PRES NEUMANN WIND NEUMANN PRES
degrees north degrees east kts mb kts mb kts mb kts mb
SI 1976-02-22 12:00:00 TS -16.40 125.00
SI 15:00:00 TS -16.39 124.39
SI 16:00:00 TS -16.38 124.30 25 999 25 999
SI 18:00:00 TS -16.39 124.12 28 997 35 997 35 998
SI 19:00:00 TS -16.38 124.03 30 997 30 997 35 997 35 997
SI 21:00:00 TS -16.37 123.65 30 997 35 997 37 997
SI 22:00:00 TS -16.36 123.45 30 997 30 997 35 997 38 997
SI 1976-02-23 00:00:00 TS -16.39 123.03 30 997 35 997 40 997
SI 01:00:00 TS -16.43 122.86 30 997 30 997 35 996 39 996
SI 03:00:00 TS -16.54 122.62 30 997 35 996 37 996
SI 04:00:00 TS -16.61 122.52 30 997 30 997 35 996 36 996
SI 06:00:00 TS -16.74 122.27 30 996 35 996 35 996
SI 07:00:00 TS -16.79 122.14 30 996 30 996 35 995 35 995
SI 09:00:00 TS -16.84 121.90 33 995 37 995 37 995
SI 10:00:00 TS -16.85 121.77 35 995 35 995 38 995 38 995
SI 12:00:00 TS -16.86 121.51 35 995 40 995 40 995
SI 13:00:00 TS -16.85 121.36 35 995 35 995 40 994 40 994
SI 15:00:00 TS -16.82 121.07 35 995 40 994 40 994
SI 16:00:00 TS -16.81 120.91 35 995 35 995 40 993 40 993
SI 18:00:00 TS -16.80 120.59 38 993 40 993 40 993
SI 19:00:00 TS -16.81 120.42 40 993 40 993 41 992 40 992
SI 21:00:00 TS -16.86 120.08 40 993 45 991 42 991
SI 22:00:00 TS -16.89 119.91 40 993 40 993 46 990 43 991
SI 1976-02-24 00:00:00 TS -17.00 119.55 43 990 50 989 45 990
SI 01:00:00 TS -17.06 119.37 45 989 45 989 50 988 45 989
SI 03:00:00 TS -17.19 119.03 48 988 50 987 47 988
SI 04:00:00 TS -17.25 118.86 50 988 50 988 50 987 48 988
SI 06:00:00 TS -17.40 118.50 50 986 50 986 50 987
SI 07:00:00 TS -17.48 118.33 50 986 50 986 50 985 50 986
SI 09:00:00 TS -17.63 117.99 50 984 52 984 52 985
SI 10:00:00 TS -17.71 117.82 50 984 50 984 53 984 53 985
SI 12:00:00 TS -17.88 117.45 50 983 55 983 55 984
SI 13:00:00 TS -17.97 117.26 50 983 50 983 55 982 55 983
SI 15:00:00 TS -18.12 116.85 53 982 57 982 57 982
SI 16:00:00 TS -18.20 116.65 55 982 55 982 58 981 58 982
SI 18:00:00 TS -18.37 116.24 58 981 60 981 60 981
SI 19:00:00 TS -18.45 116.05 60 981 60 981 60 981 60 981
SI 21:00:00 TS -18.61 115.67 60 981 60 981 60 981
SI 22:00:00 TS -18.69 115.48 60 981 60 981 60 981 60 981
SI 1976-02-25 00:00:00 TS -18.88 115.13 60 981 60 981 60 981
SI 01:00:00 TS -18.99 114.95 60 981 60 981 60 980 60 980
SI 03:00:00 TS -19.22 114.60 60 980 60 980 62 980
SI 04:00:00 TS -19.35 114.44 60 980 60 980 60 979 63 979
SI 06:00:00 TS -19.63 114.14 60 979 60 979 65 979
SI 07:00:00 TS -19.78 114.01 60 979 60 979 60 978 65 978
SI 09:00:00 TS -20.09 113.78 60 978 62 978 65 978
SI 10:00:00 TS -20.26 113.67 60 978 60 978 63 977 65 977
SI 12:00:00 TS -20.59 113.47 63 977 65 977 65 977
SI 13:00:00 TS -20.75 113.37 65 977 65 977 65 976 65 976
SI 15:00:00 TS -21.08 113.20 65 976 65 976 67 976
SI 16:00:00 TS -21.25 113.10 65 976 65 976 65 975 68 975
SI 18:00:00 TS -21.59 112.87 68 975 65 975 70 975
SI 19:00:00 TS -21.76 112.75 70 975 70 975 65 974 70 974
SI 21:00:00 TS -22.09 112.55 70 974 67 974 70 974
SI 22:00:00 TS -22.27 112.47 70 974 70 974 68 973 70 973
SI 1976-02-26 00:00:00 TS -22.62 112.33 73 973 70 973 70 973
SI 01:00:00 TS -22.79 112.29 75 973 75 973 69 973 70 973
SI 03:00:00 TS -23.13 112.28 75 973 67 973 70 973
SI 04:00:00 TS -23.29 112.29 75 974 75 974 66 973 70 973
SI 06:00:00 TS -23.62 112.34 75 974 65 974 70 973
SI 07:00:00 TS -23.79 112.37 75 974 75 974 65 974 69 973
SI 09:00:00 TS -24.13 112.43 75 974 65 975 67 974
SI 10:00:00 TS -24.29 112.47 75 975 75 975 65 975 66 974
SI 12:00:00 TS -24.61 112.55 75 976 65 977 65 976
SI 13:00:00 TS -24.77 112.56 75 977 75 977 64 977 65 976
SI 15:00:00 TS -25.09 112.59 75 977 62 978 65 977
SI 16:00:00 TS -25.25 112.61 75 978 75 978 61 978 65 977
SI 17:00:00 TS -25.42 112.63 75 75 978 60 978 65 977
SI 18:00:00 TS -25.61 112.66 70 978 60 979 65 978
SI 19:00:00 TS -25.80 112.70 65 979 65 979 60 979 64 978
SI 21:00:00 TS -26.20 112.80 65 979 60 980 62 979
SI 22:00:00 TS -26.40 112.87 65 980 65 980 60 980 61 979
SI 1976-02-27 00:00:00 TS -26.82 113.09 61 980 60 981 60 980
SI 01:00:00 TS -27.05 113.21 60 981 60 981 59 981 59 980
SI 03:00:00 TS -27.59 113.45 56 982 57 983 57 981
SI 04:00:00 TS -27.87 113.60 55 983 55 983 56 983 56 981
SI 06:00:00 TS -28.41 113.99 51 984 55 985 55 983
SI 07:00:00 TS -28.67 114.25 50 985 50 985 51 986 53 984
SI 09:00:00 TS -29.20 114.86 50 987 45 990 50 987
SI 10:00:00 TS -29.46 115.20 50 988 50 988 41 992 48 988
SI 12:00:00 TS -29.95 115.85 36 993 35 996 45 992
SI 13:00:00 NR -30.10 116.00 30 996 30 996
SI 15:00:00 NR -30.38 116.42 30 1000
SI 16:00:00 NR -30.50 116.60 30 1002 30 1002

Source Information

Agency Information
USA bsh161976.txt
TOKYO
CMA
HKO
NEWDELHI
REUNION
BOM IDCKMSTM0S.csv:Line=10247:WALLY
NADI
WELLINGTON
DS824 aus_area.dat:549:WALLY
TD9636 cons_worldwide_trop_cyclone_18710101-19891231-006:Line=10139
TD9635
NEUMANN tracks.sh:Storm=462:WALLY:BSH1676:BM467
MLC

All available IBTrACS Data

SEASON BASIN SUBBASIN ISO_TIME_________ NATURE LAT LON WMO WIND WMO PRES WMO AGENCY DIST2LAND LANDFALL IFLAG USA AGENCY USA ATCF_ID USA LAT USA LON USA SSHS BOM LAT BOM LON BOM TYPE BOM WIND BOM PRES BOM CI DS824 LAT DS824 LON DS824 STAGE DS824 WIND DS824 PRES TD9636 LAT TD9636 LON TD9636 STAGE NEUMANN LAT NEUMANN LON NEUMANN CLASS NEUMANN WIND NEUMANN PRES STORM SPEED STORM DIR
Year degrees north degrees east kts mb km km degrees north degrees east 1 degrees north degrees east kts mb 1 degrees north degrees east kts mb degrees north degrees east degrees north degrees east kts mb kts degrees
1976 SI WA 1976-02-22 12:00:00 TS -16.40 125.00 0 0 O_____________ jtwc_sh SH161976 -16.40 125.00 -1 12 271
1976 SI WA 15:00:00 TS -16.39 124.39 0 0 P_____________ SH161976 -16.39 124.39 -1 10 272
1976 SI WA 16:00:00 TS -16.38 124.30 25 999 bom 0 0 P_____O_______ SH161976 -16.39 124.19 -1 -16.30 125.00 20 25 999 5 271
1976 SI WA 18:00:00 TS -16.39 124.12 0 0 O_____P__O__O_ jtwc_sh SH161976 -16.40 123.80 -1 -16.37 124.71 20 28 997 -16.40 124.70 TC 35 997 -16.30 124.90 TC 35 998 5 269
1976 SI WA 19:00:00 TS -16.38 124.03 30 997 bom 0 0 P_____O__P__P_ SH161976 -16.41 123.61 -1 -16.40 124.50 20 30 997 2.00 -16.35 124.39 TC 35 997 -16.28 124.65 TC 35 997 9 272
1976 SI WA 21:00:00 TS -16.37 123.65 10 10 P_____P__P__P_ SH161976 -16.43 123.26 -1 -16.41 123.91 20 30 997 -16.28 123.80 TC 35 997 -16.25 124.17 TC 37 997 11 272
1976 SI WA 22:00:00 TS -16.36 123.45 30 997 bom 15 15 P_____O__P__P_ SH161976 -16.45 123.10 -1 -16.40 123.60 20 30 997 2.00 -16.26 123.54 TC 35 997 -16.25 123.93 TC 38 997 12 269
1976 SI WA 1976-02-23 00:00:00 TS -16.39 123.03 11 11 O_____P__OO_O_ jtwc_sh SH161976 -16.50 122.80 -1 -16.32 123.01 20 30 997 -16.30 123.10 TC 35 997 -16.50 122.80 4 -16.30 123.50 TC 40 997 12 264
1976 SI WA 01:00:00 TS -16.43 122.86 30 997 bom 11 10 P_____O__PP_P_ SH161976 -16.53 122.67 -1 -16.30 122.80 20 30 997 2.00 -16.36 122.94 TC 35 996 -16.54 122.70 4 -16.35 123.30 TC 39 996 8 249
1976 SI WA 03:00:00 TS -16.54 122.62 24 15 P_____P__PP_P_ SH161976 -16.59 122.43 -1 -16.40 122.73 20 30 997 -16.54 122.70 TC 35 996 -16.63 122.49 4 -16.49 122.95 TC 37 996 7 241
1976 SI WA 04:00:00 TS -16.61 122.52 30 997 bom 24 24 P_____O__PP_P_ SH161976 -16.63 122.32 -1 -16.50 122.70 20 30 997 2.00 -16.64 122.60 TC 35 996 -16.67 122.38 4 -16.57 122.79 TC 36 996 8 239
1976 SI WA 06:00:00 TS -16.74 122.27 30 30 O_____P__OP_O_ jtwc_sh SH161976 -16.70 122.10 -1 -16.79 122.38 20 30 996 -16.80 122.40 TC 35 996 -16.75 122.16 4 -16.70 122.50 TC 35 996 8 243
1976 SI WA 07:00:00 TS -16.79 122.14 30 996 bom 39 39 P_____O__PP_P_ SH161976 -16.74 121.99 -1 -16.90 122.20 20 30 996 2.50 -16.83 122.26 TC 35 995 -16.78 122.05 4 -16.74 122.37 TC 35 995 8 255
1976 SI WA 09:00:00 TS -16.84 121.90 54 54 P_____P__PP_P_ SH161976 -16.81 121.77 -1 -16.93 121.93 20 33 995 -16.85 121.96 TC 37 995 -16.84 121.80 4 -16.79 122.14 TC 37 995 7 260
1976 SI WA 10:00:00 TS -16.85 121.77 35 995 bom 62 62 P_____O__PP_P_ SH161976 -16.85 121.66 -1 -16.90 121.80 20 35 995 2.50 -16.84 121.80 TC 38 995 -16.87 121.67 4 -16.80 122.03 TC 38 995 7 267
1976 SI WA 12:00:00 TS -16.86 121.51 86 86 O_____P__OO_O_ jtwc_sh SH161976 -16.90 121.40 -1 -16.84 121.53 20 35 995 -16.80 121.50 TC 40 995 -16.90 121.40 4 -16.80 121.80 TC 40 995 8 270
1976 SI WA 13:00:00 TS -16.85 121.36 35 995 bom 101 101 P_____O__PP_P_ SH161976 -16.91 121.25 -1 -16.80 121.40 30 35 995 3.00 -16.78 121.37 TC 40 994 -16.91 121.25 4 -16.78 121.66 TC 40 994 8 275
1976 SI WA 15:00:00 TS -16.82 121.07 129 129 P_____P__PP_P_ SH161976 -16.91 120.92 -1 -16.73 121.14 30 35 995 -16.73 121.11 TC 40 994 -16.91 120.94 4 -16.73 121.37 TC 40 994 9 276
1976 SI WA 16:00:00 TS -16.81 120.91 35 995 bom 149 149 P_____O__PP_P_ SH161976 -16.90 120.75 -1 -16.70 121.00 30 35 995 3.00 -16.71 120.98 TC 40 993 -16.91 120.78 4 -16.71 121.22 TC 40 993 9 272
1976 SI WA 18:00:00 TS -16.80 120.59 179 179 O_____P__OP_O_ jtwc_sh SH161976 -16.90 120.40 -1 -16.69 120.67 30 38 993 -16.70 120.70 TC 40 993 -16.91 120.44 4 -16.70 120.90 TC 40 993 9 269
1976 SI WA 19:00:00 TS -16.81 120.42 40 993 bom 199 199 P_____O__PP_P_ SH161976 -16.90 120.23 -1 -16.70 120.50 30 40 993 3.00 -16.72 120.53 TC 41 992 -16.91 120.27 4 -16.72 120.74 TC 40 992 10 263
1976 SI WA 21:00:00 TS -16.86 120.08 226 226 P_____P__PP_P_ SH161976 -16.92 119.90 -1 -16.75 120.17 30 40 993 -16.81 120.17 TC 45 991 -16.93 119.92 4 -16.81 120.42 TC 42 991 10 260
1976 SI WA 22:00:00 TS -16.89 119.91 40 993 bom 246 246 P_____O__PP_P_ SH161976 -16.94 119.73 -1 -16.80 120.00 30 40 993 3.00 -16.87 119.98 TC 46 990 -16.95 119.75 4 -16.87 120.25 TC 43 991 11 254
1976 SI WA 1976-02-24 00:00:00 TS -17.00 119.55 284 284 O_____P__OO_O_ jtwc_sh SH161976 -17.00 119.40 -1 -17.00 119.60 30 43 990 -17.00 119.60 TC 50 989 -17.00 119.40 4 -17.00 119.90 TC 45 990 11 252
1976 SI WA 01:00:00 TS -17.06 119.37 45 989 bom 292 292 P_____O__PP_P_ SH161976 -17.05 119.23 -1 -17.10 119.40 30 45 989 3.00 -17.06 119.42 TC 50 988 -17.05 119.24 4 -17.06 119.72 TC 45 989 11 249
1976 SI WA 03:00:00 TS -17.19 119.03 324 324 P_____P__PP_P_ SH161976 -17.17 118.90 -1 -17.24 119.07 30 48 988 -17.18 119.05 TC 50 987 -17.16 118.92 4 -17.19 119.36 TC 47 988 11 248
1976 SI WA 04:00:00 TS -17.25 118.86 50 988 bom 313 306 P_____O__PP_P_ SH161976 -17.24 118.73 -1 -17.30 118.90 30 50 988 3.50 -17.25 118.87 TC 50 987 -17.23 118.76 4 -17.26 119.17 TC 48 988 11 247
1976 SI WA 06:00:00 TS -17.40 118.50 308 300 O_____P__OP_O_ jtwc_sh SH161976 -17.40 118.40 -1 -17.43 118.50 30 50 986 -17.40 118.50 TC 50 986 -17.38 118.43 4 -17.40 118.80 TC 50 987 11 246
1976 SI WA 07:00:00 TS -17.48 118.33 50 986 bom 302 295 P_____O__PP_P_ SH161976 -17.48 118.24 -1 -17.50 118.30 30 50 986 3.50 -17.48 118.32 TC 50 985 -17.46 118.27 4 -17.46 118.62 TC 50 986 11 245
1976 SI WA 09:00:00 TS -17.63 117.99 302 296 P_____P__PP_P_ SH161976 -17.64 117.91 -1 -17.63 117.97 30 50 984 -17.64 117.96 TC 52 984 -17.63 117.93 4 -17.59 118.26 TC 52 985 11 244
1976 SI WA 10:00:00 TS -17.71 117.82 50 984 bom 301 286 P_____O__PP_P_ SH161976 -17.73 117.75 -1 -17.70 117.80 30 50 984 3.50 -17.73 117.77 TC 53 984 -17.72 117.76 4 -17.66 118.07 TC 53 985 11 244
1976 SI WA 12:00:00 TS -17.88 117.45 286 281 O_____P__OO_O_ jtwc_sh SH161976 -17.90 117.40 -1 -17.90 117.41 30 50 983 -17.90 117.40 TC 55 983 -17.90 117.40 4 -17.80 117.70 TC 55 984 12 244
1976 SI WA 13:00:00 TS -17.97 117.26 50 983 bom 281 279 P_____O__PP_P_ SH161976 -17.98 117.21 -1 -18.00 117.20 30 50 983 3.50 -17.98 117.20 TC 55 982 -17.97 117.20 4 -17.88 117.50 TC 55 983 12 247
1976 SI WA 15:00:00 TS -18.12 116.85 279 268 P_____P__PP_P_ SH161976 -18.15 116.81 -1 -18.13 116.80 30 53 982 -18.15 116.79 TC 57 982 -18.11 116.80 4 -18.04 117.10 TC 57 982 12 248
1976 SI WA 16:00:00 TS -18.20 116.65 55 982 bom 268 249 P_____O__PP_P_ SH161976 -18.23 116.61 -1 -18.20 116.60 30 55 982 4.00 -18.23 116.59 TC 58 981 -18.18 116.59 4 -18.13 116.90 TC 58 982 13 247
1976 SI WA 18:00:00 TS -18.37 116.24 251 251 O_____P__OP_O_ jtwc_sh SH161976 -18.40 116.20 -1 -18.40 116.19 30 58 981 -18.40 116.20 TC 60 981 -18.33 116.18 4 -18.30 116.50 TC 60 981 13 246
1976 SI WA 19:00:00 TS -18.45 116.05 60 981 bom 246 242 P_____O__PP_P_ SH161976 -18.48 115.99 -1 -18.50 116.00 30 60 981 4.00 -18.48 116.02 TC 60 981 -18.41 115.97 4 -18.38 116.31 TC 60 981 12 247
1976 SI WA 21:00:00 TS -18.61 115.67 247 246 P_____P__PP_P_ SH161976 -18.63 115.58 -1 -18.63 115.66 30 60 981 -18.63 115.69 TC 60 981 -18.59 115.57 4 -18.53 115.93 TC 60 981 12 246
1976 SI WA 22:00:00 TS -18.69 115.48 60 981 bom 246 246 P_____O__PP_P_ SH161976 -18.71 115.38 -1 -18.70 115.50 30 60 981 4.00 -18.72 115.53 TC 60 981 -18.69 115.37 4 -18.62 115.75 TC 60 981 12 242
1976 SI WA 1976-02-25 00:00:00 TS -18.88 115.13 251 246 O_____P__OO_O_ jtwc_sh SH161976 -18.90 115.00 -1 -18.89 115.17 30 60 981 -18.90 115.20 TC 60 981 -18.90 115.00 4 -18.80 115.40 TC 60 981 12 239
1976 SI WA 01:00:00 TS -18.99 114.95 60 981 bom 246 246 P_____O__PP_P_ SH161976 -19.01 114.83 -1 -19.00 115.00 30 60 981 4.00 -19.00 115.01 TC 60 980 -19.02 114.83 4 -18.90 115.22 TC 60 980 12 236
1976 SI WA 03:00:00 TS -19.22 114.60 252 248 P_____P__PP_P_ SH161976 -19.26 114.52 -1 -19.19 114.59 30 60 980 -19.22 114.61 TC 60 980 -19.28 114.50 4 -19.12 114.86 TC 62 980 12 233
1976 SI WA 04:00:00 TS -19.35 114.44 60 980 bom 246 244 P_____O__PP_P_ SH161976 -19.40 114.38 -1 -19.30 114.40 30 60 980 4.00 -19.34 114.42 TC 60 979 -19.43 114.35 4 -19.24 114.70 TC 63 979 12 227
1976 SI WA 06:00:00 TS -19.63 114.14 249 232 O_____P__OP_O_ jtwc_sh SH161976 -19.70 114.10 -1 -19.55 114.11 30 60 979 -19.60 114.10 TC 60 979 -19.72 114.05 4 -19.50 114.40 TC 65 979 12 223
1976 SI WA 07:00:00 TS -19.78 114.01 60 979 bom 232 202 P_____O__PP_P_ SH161976 -19.86 113.96 -1 -19.70 114.00 30 60 979 4.00 -19.74 113.98 TC 60 978 -19.88 113.91 4 -19.64 114.28 TC 65 978 12 217
1976 SI WA 09:00:00 TS -20.09 113.78 202 192 P_____P__PP_P_ SH161976 -20.18 113.68 -1 -20.03 113.79 30 60 978 -20.03 113.80 TC 62 978 -20.20 113.65 4 -19.93 114.07 TC 65 978 12 214
1976 SI WA 10:00:00 TS -20.26 113.67 60 978 bom 181 154 P_____O__PP_P_ SH161976 -20.36 113.55 -1 -20.20 113.70 30 60 978 4.00 -20.18 113.73 TC 63 977 -20.37 113.53 4 -20.08 113.98 TC 65 977 12 210
1976 SI WA 12:00:00 TS -20.59 113.47 154 147 O_____P__OO_O_ jtwc_sh SH161976 -20.70 113.30 -1 -20.53 113.55 30 63 977 -20.50 113.60 TC 65 977 -20.70 113.30 4 -20.40 113.80 TC 65 977 11 210
1976 SI WA 13:00:00 TS -20.75 113.37 65 977 bom 137 121 P_____O__PP_P_ SH161976 -20.87 113.17 -1 -20.70 113.50 40 65 977 4.50 -20.66 113.52 TC 65 976 -20.86 113.17 4 -20.56 113.70 TC 65 976 11 208
1976 SI WA 15:00:00 TS -21.08 113.20 121 121 P_____P__PP_P_ SH161976 -21.20 112.92 -1 -21.03 113.54 40 65 976 -20.98 113.36 TC 65 976 -21.19 112.93 4 -20.89 113.50 TC 67 976 11 207
1976 SI WA 16:00:00 TS -21.25 113.10 65 976 bom 114 112 P_____O__PP_P_ SH161976 -21.37 112.80 -1 -21.20 113.50 40 65 976 4.50 -21.15 113.28 TC 65 975 -21.36 112.82 4 -21.06 113.40 TC 68 975 12 211
1976 SI WA 18:00:00 TS -21.59 112.87 117 117 O_____P__OP_O_ jtwc_sh SH161976 -21.70 112.60 -1 -21.53 113.11 40 68 975 -21.50 113.10 TC 65 975 -21.69 112.61 4 -21.40 113.20 TC 70 975 12 213
1976 SI WA 19:00:00 TS -21.76 112.75 70 975 bom 126 117 P_____O__PP_P_ SH161976 -21.87 112.51 -1 -21.70 112.90 40 70 975 4.50 -21.68 112.97 TC 65 974 -21.86 112.52 4 -21.56 113.09 TC 70 974 12 210
1976 SI WA 21:00:00 TS -22.09 112.55 117 117 P_____P__PP_P_ SH161976 -22.20 112.35 -1 -22.03 112.68 40 70 974 -22.05 112.71 TC 67 974 -22.20 112.36 4 -21.89 112.86 TC 70 974 11 207
1976 SI WA 22:00:00 TS -22.27 112.47 70 974 bom 117 117 P_____O__PP_P_ SH161976 -22.37 112.29 -1 -22.20 112.60 40 70 974 4.50 -22.24 112.58 TC 68 973 -22.37 112.29 4 -22.06 112.76 TC 70 973 11 201
1976 SI WA 1976-02-26 00:00:00 TS -22.62 112.33 133 133 O_____P__OO_O_ jtwc_sh SH161976 -22.70 112.20 -1 -22.60 112.37 40 73 973 -22.60 112.40 TC 70 973 -22.70 112.20 4 -22.40 112.60 TC 70 973 11 198
1976 SI WA 01:00:00 TS -22.79 112.29 75 973 bom 135 135 P_____O__PP_P_ SH161976 -22.87 112.17 -1 -22.80 112.30 40 75 973 4.50 -22.77 112.37 TC 69 973 -22.86 112.17 4 -22.58 112.55 TC 70 973 10 183
1976 SI WA 03:00:00 TS -23.13 112.28 144 139 P_____P__PP_P_ SH161976 -23.21 112.15 -1 -23.14 112.34 40 75 973 -23.10 112.38 TC 67 973 -23.16 112.14 4 -22.95 112.49 TC 70 973 10 178
1976 SI WA 04:00:00 TS -23.29 112.29 75 974 bom 139 126 P_____O__PP_P_ SH161976 -23.37 112.16 -1 -23.30 112.40 40 75 974 4.50 -23.26 112.41 TC 66 973 -23.31 112.15 4 -23.14 112.48 TC 70 973 10 173
1976 SI WA 06:00:00 TS -23.62 112.34 126 112 O_____P__OP_O_ jtwc_sh SH161976 -23.70 112.20 -1 -23.63 112.47 40 75 974 -23.60 112.50 TC 65 974 -23.62 112.18 4 -23.50 112.50 TC 70 973 10 172
1976 SI WA 07:00:00 TS -23.79 112.37 75 974 bom 112 106 P_____O__PP_P_ SH161976 -23.85 112.22 -1 -23.80 112.50 40 75 974 4.50 -23.79 112.53 TC 65 974 -23.77 112.21 4 -23.67 112.52 TC 69 973 10 170
1976 SI WA 09:00:00 TS -24.13 112.43 106 91 P_____P__PP_P_ SH161976 -24.14 112.28 -1 -24.21 112.57 40 75 974 -24.17 112.61 TC 65 975 -24.09 112.28 4 -24.01 112.58 TC 67 974 10 169
1976 SI WA 10:00:00 TS -24.29 112.47 75 975 bom 91 91 P_____O__PP_P_ SH161976 -24.29 112.32 -1 -24.40 112.60 40 75 975 4.50 -24.35 112.64 TC 65 975 -24.26 112.32 4 -24.17 112.62 TC 66 974 10 168
1976 SI WA 12:00:00 TS -24.61 112.55 93 87 O_____P__OO_O_ jtwc_sh SH161976 -24.60 112.40 -1 -24.68 112.67 40 75 976 -24.70 112.70 TC 65 977 -24.60 112.40 4 -24.50 112.70 TC 65 976 10 169
1976 SI WA 13:00:00 TS -24.77 112.56 75 977 bom 92 92 P_____O__PP_P_ SH161976 -24.77 112.43 -1 -24.80 112.70 40 75 977 4.50 -24.84 112.70 TC 64 977 -24.77 112.40 4 -24.67 112.73 TC 65 976 10 175
1976 SI WA 15:00:00 TS -25.09 112.59 103 97 P_____P__PP_P_ SH161976 -25.12 112.49 -1 -25.08 112.70 40 75 977 -25.09 112.67 TC 62 978 -25.13 112.39 4 -25.00 112.79 TC 65 977 10 175
1976 SI WA 16:00:00 TS -25.25 112.61 75 978 bom 91 86 P_____O__PP_P_ SH161976 -25.31 112.53 -1 -25.20 112.70 40 75 978 4.50 -25.22 112.66 TC 61 978 -25.32 112.40 4 -25.17 112.83 TC 65 977 10 172
1976 SI WA 17:00:00 TS -25.42 112.63 75 bom 86 70 P_____I__PP_P_ SH161976 -25.50 112.56 -1 -25.30 112.70 40 75 978 4.50 -25.35 112.67 TC 60 978 -25.51 112.41 4 -25.33 112.86 TC 65 977 11 171
1976 SI WA 18:00:00 TS -25.61 112.66 70 68 O_____P__OP_O_ jtwc_sh SH161976 -25.70 112.60 -1 -25.52 112.74 40 70 978 -25.50 112.70 TC 60 979 -25.71 112.43 4 -25.50 112.90 TC 65 978 12 170
1976 SI WA 19:00:00 TS -25.80 112.70 65 979 bom 68 49 P_____O__PP_P_ SH161976 -25.90 112.62 -1 -25.80 112.80 40 65 979 4.50 -25.66 112.77 TC 60 979 -25.91 112.46 4 -25.65 112.94 TC 64 978 12 168
1976 SI WA 21:00:00 TS -26.20 112.80 49 41 P_____P__PP_P_ SH161976 -26.32 112.68 -1 -26.22 112.91 40 65 979 -26.03 112.95 TC 60 980 -26.33 112.57 4 -25.95 113.02 TC 62 979 12 165
1976 SI WA 22:00:00 TS -26.40 112.87 65 980 bom 41 41 P_____O__PP_P_ SH161976 -26.54 112.72 -1 -26.40 113.00 40 65 980 4.50 -26.24 113.07 TC 60 980 -26.54 112.65 4 -26.12 113.07 TC 61 979 14 157
1976 SI WA 1976-02-27 00:00:00 TS -26.82 113.09 50 50 O_____P__OO_O_ jtwc_sh SH161976 -27.00 112.90 -1 -26.70 113.35 40 61 980 -26.70 113.30 TC 60 981 -27.00 112.90 4 -26.50 113.20 TC 60 980 14 156
1976 SI WA 01:00:00 TS -27.05 113.21 60 981 bom 59 54 P_____O__PP_P_ SH161976 -27.24 113.03 -1 -26.90 113.50 21 60 981 4.00 -26.96 113.37 TC 59 981 -27.24 113.07 4 -26.73 113.26 TC 59 980 17 158
1976 SI WA 03:00:00 TS -27.59 113.45 67 49 P_____P__PP_P_ SH161976 -27.73 113.37 -1 -27.56 113.57 21 56 982 -27.53 113.51 TC 57 983 -27.73 113.48 4 -27.26 113.40 TC 57 981 18 157
1976 SI WA 04:00:00 TS -27.87 113.60 55 983 bom 50 36 P_____O__PP_P_ SH161976 -27.98 113.58 -1 -27.90 113.60 21 55 983 4.00 -27.82 113.61 TC 56 983 -27.98 113.72 4 -27.54 113.51 TC 56 981 19 150
1976 SI WA 06:00:00 TS -28.41 113.99 36 31 O_____P__OP_O_ jtwc_sh SH161976 -28.50 114.10 -1 -28.44 113.80 21 51 984 -28.40 113.90 TC 55 985 -28.50 114.26 4 -28.10 113.80 TC 55 983 20 145
1976 SI WA 07:00:00 TS -28.67 114.25 50 985 bom 36 9 P_____O__PP_P_ SH161976 -28.76 114.40 -1 -28.70 114.00 21 50 985 3.50 -28.67 114.12 TC 51 986 -28.76 114.56 4 -28.37 114.00 TC 53 984 22 136
1976 SI WA 09:00:00 TS -29.20 114.86 9 0 P_____P__PP_P_ SH161976 -29.30 115.08 -1 -29.25 114.71 21 50 987 -29.18 114.68 TC 45 990 -29.30 115.19 4 -28.88 114.50 TC 50 987 23 134
1976 SI WA 10:00:00 TS -29.46 115.20 50 988 bom 0 0 P_____O__PP_P_ SH161976 -29.57 115.44 -1 -29.50 115.10 21 50 988 3.50 -29.43 115.00 TC 41 992 -29.56 115.52 4 -29.12 114.79 TC 48 988 23 131
1976 SI WA 12:00:00 TS -29.95 115.85 0 0 O_____P__OO_O_ jtwc_sh SH161976 -30.10 116.20 -1 -29.93 115.73 21 36 993 -29.90 115.70 TC 35 996 -30.10 116.20 4 -29.60 115.40 TC 45 992 19 133
1976 SI WA 13:00:00 NR -30.10 116.00 30 996 bom 0 0 ______O_______ SH161976 -1 -30.10 116.00 20 30 996 TC 4 TC 13 131
1976 SI WA 15:00:00 NR -30.38 116.42 0 0 ______P_______ SH161976 -1 -30.38 116.42 20 30 1000 TC 4 TC 13 128
1976 SI WA 16:00:00 NR -30.50 116.60 30 1002 bom 0 ______O_______ SH161976 -1 -30.50 116.60 20 30 1002 TC 4 TC 12 129